createdAt,value
2018-12-01T09:12:00.600Z,7.20
2018-12-01T09:14:30.969Z,7.40
2018-12-01T09:17:01.655Z,7.80
2018-12-01T09:19:31.815Z,8.10
2018-12-01T09:22:02.412Z,8.20
2018-12-01T09:24:32.679Z,8.50
2018-12-01T09:27:02.906Z,8.60
2018-12-01T09:29:33.227Z,8.80
2018-12-01T09:32:03.563Z,9.00
2018-12-01T09:34:33.822Z,9.10
2018-12-01T09:37:04.682Z,8.60
2018-12-01T09:39:35.399Z,8.40
2018-12-01T09:42:06.643Z,7.90
2018-12-01T09:44:37.337Z,8.00
2018-12-01T09:47:07.838Z,8.10
2018-12-01T09:49:38.344Z,8.40
2018-12-01T09:52:08.754Z,8.50
2018-12-01T09:54:39.222Z,8.50
2018-12-01T09:57:09.834Z,8.70
2018-12-01T09:59:40.302Z,8.80
2018-12-01T10:02:10.765Z,8.80
2018-12-01T10:04:41.166Z,9.00
2018-12-01T10:07:11.911Z,9.30
2018-12-01T10:09:42.313Z,9.70
2018-12-01T10:12:13.519Z,10.10
2018-12-01T10:14:44.184Z,9.80
2018-12-01T10:17:14.549Z,9.70
2018-12-01T10:19:44.916Z,9.30
2018-12-01T10:22:15.268Z,8.90
2018-12-01T10:24:45.701Z,9.20
2018-12-01T10:27:16.233Z,9.60
2018-12-01T10:29:46.939Z,9.80
2018-12-01T10:32:17.700Z,10.10
2018-12-01T10:34:48.076Z,10.10
2018-12-01T10:37:18.670Z,9.70
2018-12-01T10:39:49.220Z,9.10
2018-12-01T10:42:19.869Z,8.60
2018-12-01T10:44:50.321Z,8.50
2018-12-01T10:47:20.910Z,8.50
2018-12-01T10:49:51.325Z,8.80
2018-12-01T10:52:21.948Z,9.20
2018-12-01T10:54:52.280Z,9.40
2018-12-01T10:57:22.795Z,9.40
2018-12-01T10:59:53.615Z,9.40
2018-12-01T11:02:29.491Z,9.20
2018-12-01T11:04:59.791Z,9.10
2018-12-01T11:07:30.814Z,8.90
2018-12-01T11:10:01.332Z,8.80
2018-12-01T11:12:32.264Z,9.10
2018-12-01T11:15:02.478Z,9.40
2018-12-01T11:17:32.768Z,10.10
2018-12-01T11:20:03.934Z,10.50
2018-12-01T11:22:34.360Z,10.70
2018-12-01T11:25:07.397Z,10.40
2018-12-01T11:27:38.519Z,10.50
2018-12-01T11:30:15.711Z,10.30
2018-12-01T11:32:46.211Z,10.20
2018-12-01T11:35:17.354Z,10.20
2018-12-01T11:37:48.101Z,10.10
2018-12-01T11:40:19.682Z,9.70
2018-12-01T11:42:50.266Z,9.40
2018-12-01T11:45:20.710Z,9.20
2018-12-01T11:47:51.521Z,8.80
2018-12-01T11:50:27.766Z,8.10
2018-12-01T11:52:59.424Z,7.80
2018-12-01T11:55:29.932Z,7.60
2018-12-01T11:58:00.684Z,7.50
2018-12-01T12:00:31.658Z,7.30
2018-12-01T12:03:02.362Z,7.30
2018-12-01T12:05:32.955Z,7.30
2018-12-01T12:08:26.490Z,7.20
2018-12-01T12:10:56.964Z,7.10
2018-12-01T12:13:28.300Z,7.10
2018-12-01T12:15:58.777Z,7.10
2018-12-01T12:18:29.515Z,7.10
2018-12-01T12:21:00.079Z,7.10
2018-12-01T12:23:30.605Z,7.10
2018-12-01T12:26:01.275Z,7.20
2018-12-01T12:28:32.227Z,7.20
2018-12-01T12:31:02.868Z,7.20
2018-12-01T12:33:33.635Z,7.20
2018-12-01T12:36:04.270Z,7.00
2018-12-01T12:38:34.925Z,7.00
2018-12-01T12:41:06.570Z,6.90
2018-12-01T12:43:37.510Z,6.90
2018-12-01T12:46:08.352Z,7.00
2018-12-01T12:48:39.237Z,7.20
2018-12-01T12:51:10.032Z,7.80
2018-12-01T12:53:41.062Z,8.40
2018-12-01T12:56:12.072Z,9.00
2018-12-01T12:58:42.818Z,9.40
2018-12-01T13:01:13.567Z,9.10
2018-12-01T13:03:45.037Z,8.50
2018-12-01T13:06:16.157Z,8.00
2018-12-01T13:08:46.928Z,7.80
2018-12-01T13:11:18.038Z,8.40
2018-12-01T13:13:48.658Z,8.80
2018-12-01T13:16:19.133Z,9.00
2018-12-01T13:18:49.917Z,9.40
2018-12-01T13:21:20.200Z,9.90
2018-12-01T13:23:50.678Z,9.70
2018-12-01T13:26:21.208Z,9.60
2018-12-01T13:28:51.715Z,9.30
2018-12-01T13:31:22.532Z,9.10
2018-12-01T13:33:53.724Z,8.80
2018-12-01T13:36:24.422Z,8.30
2018-12-01T13:38:54.867Z,8.00
2018-12-01T13:41:25.256Z,7.80
2018-12-01T13:43:56.087Z,7.70
2018-12-01T13:46:27.062Z,7.70
2018-12-01T13:48:58.024Z,7.80
2018-12-01T13:51:28.527Z,8.30
2018-12-01T13:53:59.155Z,8.30
2018-12-01T13:56:29.739Z,8.20
2018-12-01T13:59:00.199Z,7.90
2018-12-01T14:01:30.730Z,7.60
2018-12-01T14:04:02.272Z,7.30
2018-12-01T14:06:34.480Z,7.10
2018-12-01T14:09:06.853Z,6.90
2018-12-01T14:11:38.282Z,6.70
